createdAt,value
2018-07-07T00:00:35.664Z,14.39
2018-07-07T00:01:44.523Z,14.43
2018-07-07T00:02:53.660Z,14.45
2018-07-07T00:04:02.796Z,14.45
2018-07-07T00:05:11.757Z,14.28
2018-07-07T00:06:20.900Z,14.27
2018-07-07T00:07:29.760Z,14.28
2018-07-07T00:08:38.620Z,14.22
2018-07-07T00:09:47.480Z,14.28
2018-07-07T00:10:56.343Z,14.24
2018-07-07T00:12:05.203Z,14.21
2018-07-07T00:13:14.064Z,14.32
2018-07-07T00:14:23.202Z,14.18
2018-07-07T00:15:32.342Z,14.18
2018-07-07T00:16:41.580Z,14.17
2018-07-07T00:17:50.726Z,14.15
2018-07-07T00:18:59.583Z,14.2
2018-07-07T00:20:08.444Z,14.29
2018-07-07T00:21:17.305Z,14.18
2018-07-07T00:22:26.166Z,14.22
2018-07-07T00:23:35.031Z,14.04
2018-07-07T00:24:43.894Z,14.15
2018-07-07T00:25:53.032Z,14.15
2018-07-07T00:27:01.889Z,14.14
2018-07-07T00:28:10.748Z,14.07
2018-07-07T00:29:19.610Z,14.15
2018-07-07T00:30:28.471Z,14.1
2018-07-07T00:31:37.332Z,14.17
2018-07-07T00:32:46.194Z,14.09
2018-07-07T00:33:55.332Z,14.04
2018-07-07T00:35:04.192Z,14.24
2018-07-07T00:36:13.051Z,14.22
2018-07-07T00:37:21.913Z,14.2
2018-07-07T00:38:30.776Z,14.17
2018-07-07T00:39:39.633Z,14.28
2018-07-07T00:40:48.773Z,14.32
2018-07-07T00:41:57.911Z,14.27
2018-07-07T00:43:06.771Z,14.54
2018-07-07T00:44:15.635Z,14.32
2018-07-07T00:45:24.921Z,14.21
2018-07-07T00:46:33.782Z,14.17
2018-07-07T00:47:42.926Z,14.27
2018-07-07T00:48:51.786Z,14.28
2018-07-07T00:50:00.926Z,14.24
2018-07-07T00:51:10.160Z,14.18
2018-07-07T00:52:19.019Z,14.18
2018-07-07T00:53:27.879Z,14.35
2018-07-07T00:54:36.740Z,14.27
2018-07-07T00:55:45.604Z,14.27
2018-07-07T00:56:54.792Z,14.22
2018-07-07T00:58:04.207Z,14.1
2018-07-07T00:59:13.345Z,14.07
2018-07-07T01:00:22.482Z,14.02
2018-07-07T01:01:31.625Z,14
2018-07-07T01:02:40.487Z,13.96
2018-07-07T01:03:49.615Z,14.06
2018-07-07T01:04:58.479Z,14.04
2018-07-07T01:06:07.343Z,14.12
2018-07-07T01:07:16.203Z,14.06
2018-07-07T01:08:25.064Z,14.03
2018-07-07T01:09:33.921Z,14.02
2018-07-07T01:10:42.783Z,14
2018-07-07T01:11:51.643Z,14.02
2018-07-07T01:13:00.780Z,13.95
2018-07-07T01:14:09.639Z,13.95
2018-07-07T01:15:18.497Z,14
2018-07-07T01:16:27.356Z,14
2018-07-07T01:17:36.217Z,14
2018-07-07T01:18:45.351Z,14
2018-07-07T01:19:54.645Z,14.09
2018-07-07T01:21:03.506Z,14.03
2018-07-07T01:22:12.365Z,14.07
2018-07-07T01:23:21.224Z,14.02
2018-07-07T01:24:30.091Z,14.02
2018-07-07T01:25:39.229Z,14
2018-07-07T01:26:48.091Z,14.02
2018-07-07T01:27:57.228Z,13.97
2018-07-07T01:29:06.087Z,13.95
2018-07-07T01:30:14.942Z,13.97
2018-07-07T01:31:23.803Z,13.84
2018-07-07T01:32:32.663Z,13.92
2018-07-07T01:33:41.804Z,13.91
2018-07-07T01:34:50.664Z,13.75
2018-07-07T01:35:59.805Z,13.78
2018-07-07T01:37:08.944Z,13.92
2018-07-07T01:38:18.082Z,13.84
2018-07-07T01:39:26.944Z,13.73
2018-07-07T01:40:35.801Z,13.69
2018-07-07T01:41:44.665Z,13.63
2018-07-07T01:42:53.522Z,13.52
2018-07-07T01:44:02.388Z,13.66
2018-07-07T01:45:11.252Z,13.64
2018-07-07T01:46:20.390Z,13.69
2018-07-07T01:47:29.250Z,13.71
2018-07-07T01:48:38.162Z,13.73
2018-07-07T01:49:47.319Z,13.62
2018-07-07T01:50:56.456Z,13.62
2018-07-07T01:52:05.867Z,13.49
2018-07-07T01:53:14.729Z,13.55
2018-07-07T01:54:23.863Z,13.51
2018-07-07T01:55:32.723Z,13.63
2018-07-07T01:56:41.581Z,13.55
2018-07-07T01:57:50.443Z,13.59
2018-07-07T01:58:59.299Z,13.51
2018-07-07T02:00:08.160Z,13.79
2018-07-07T02:01:17.022Z,13.71
2018-07-07T02:02:25.886Z,13.57
2018-07-07T02:03:34.750Z,13.51
2018-07-07T02:04:43.609Z,13.6
2018-07-07T02:05:52.468Z,13.57
2018-07-07T02:07:01.370Z,13.48
2018-07-07T02:08:10.508Z,13.6
2018-07-07T02:09:19.372Z,13.54
2018-07-07T02:10:28.560Z,13.51
2018-07-07T02:11:37.368Z,13.54
2018-07-07T02:12:46.230Z,13.44
2018-07-07T02:13:55.090Z,13.54
2018-07-07T02:15:04.225Z,13.49
2018-07-07T02:16:13.359Z,13.52
2018-07-07T02:17:22.372Z,13.51
2018-07-07T02:18:31.231Z,13.46
2018-07-07T02:19:40.368Z,13.44
2018-07-07T02:20:49.227Z,13.51
2018-07-07T02:21:58.087Z,13.55
2018-07-07T02:23:07.324Z,13.45
2018-07-07T02:24:16.462Z,13.42
2018-07-07T02:25:25.322Z,13.62
2018-07-07T02:26:34.186Z,13.66
2018-07-07T02:27:43.041Z,13.51
2018-07-07T02:28:52.249Z,13.52
2018-07-07T02:30:01.110Z,13.51
2018-07-07T02:31:09.976Z,13.55
2018-07-07T02:32:19.673Z,13.57
2018-07-07T02:33:29.408Z,13.57
2018-07-07T02:34:38.826Z,13.49
2018-07-07T02:35:47.963Z,13.45
2018-07-07T02:36:57.941Z,13.42
2018-07-07T02:38:07.363Z,13.33
2018-07-07T02:39:16.503Z,13.26
2018-07-07T02:40:25.790Z,13.29
2018-07-07T02:41:34.932Z,13.2
2018-07-07T02:42:44.353Z,13.28
2018-07-07T02:43:53.543Z,13.23
2018-07-07T02:45:02.953Z,13.15
2018-07-07T02:46:12.152Z,13.32
2018-07-07T02:47:20.951Z,13.32
2018-07-07T02:48:30.086Z,13.15
2018-07-07T02:49:39.223Z,13.22
2018-07-07T02:50:48.645Z,13.26
2018-07-07T02:51:57.499Z,13.26
2018-07-07T02:53:06.366Z,13.2
2018-07-07T02:54:15.228Z,13.03
2018-07-07T02:55:25.197Z,13.1
2018-07-07T02:56:34.611Z,13.28
2018-07-07T02:57:44.374Z,13.2
2018-07-07T02:58:53.516Z,13.17
2018-07-07T03:00:02.671Z,13.19
2018-07-07T03:01:11.527Z,13.38
2018-07-07T03:02:20.385Z,13.3
2018-07-07T03:03:29.345Z,13.25
2018-07-07T03:04:38.487Z,13.04
2018-07-07T03:05:47.346Z,13.11
2018-07-07T03:06:56.483Z,13.08
2018-07-07T03:08:05.618Z,13.04
2018-07-07T03:09:14.762Z,13.01
2018-07-07T03:10:24.180Z,13.12
2018-07-07T03:11:33.329Z,13.29
2018-07-07T03:12:42.464Z,13.14
2018-07-07T03:13:51.604Z,13.2
2018-07-07T03:15:00.890Z,13.28
2018-07-07T03:16:09.752Z,13.29
2018-07-07T03:17:18.619Z,13.51
2018-07-07T03:18:27.477Z,13.49
2018-07-07T03:19:36.337Z,13.51
2018-07-07T03:20:45.553Z,13.51
2018-07-07T03:21:54.973Z,13.48
2018-07-07T03:23:04.392Z,13.46
2018-07-07T03:24:13.530Z,13.51
2018-07-07T03:25:22.680Z,13.55
2018-07-07T03:26:32.248Z,13.55
2018-07-07T03:27:41.101Z,13.45
2018-07-07T03:28:49.962Z,13.57
2018-07-07T03:29:59.098Z,13.51
2018-07-07T03:31:07.958Z,13.6
2018-07-07T03:32:18.287Z,13.51
2018-07-07T03:33:27.141Z,13.6
2018-07-07T03:34:36.275Z,13.59
2018-07-07T03:35:45.138Z,13.67
2018-07-07T03:36:53.998Z,13.66
2018-07-07T03:38:02.904Z,13.69
2018-07-07T03:39:11.995Z,13.73
2018-07-07T03:40:20.854Z,13.77
2018-07-07T03:41:29.715Z,13.77
2018-07-07T03:42:38.849Z,13.7
2018-07-07T03:43:47.860Z,13.81
2018-07-07T03:44:56.718Z,13.87
2018-07-07T03:46:05.579Z,13.88
2018-07-07T03:47:14.442Z,13.81
2018-07-07T03:48:23.397Z,13.84
2018-07-07T03:49:32.535Z,13.84
2018-07-07T03:50:41.677Z,13.92
2018-07-07T03:51:50.539Z,13.88
2018-07-07T03:52:59.401Z,14.02
2018-07-07T03:54:08.275Z,14.06
2018-07-07T03:55:17.484Z,13.96
2018-07-07T03:56:26.345Z,13.95
2018-07-07T03:57:35.206Z,14.02
2018-07-07T03:58:44.070Z,14.04
2018-07-07T03:59:52.922Z,14.09
2018-07-07T04:01:01.935Z,13.97
2018-07-07T04:02:10.793Z,14.06
2018-07-07T04:03:19.655Z,13.92
2018-07-07T04:04:28.514Z,13.99
2018-07-07T04:05:37.376Z,14
2018-07-07T04:06:46.237Z,14.09
2018-07-07T04:07:55.097Z,14.03
2018-07-07T04:09:03.960Z,14.04
2018-07-07T04:10:12.822Z,14.02
2018-07-07T04:11:21.963Z,14.15
2018-07-07T04:12:30.823Z,14.12
2018-07-07T04:13:39.960Z,14.07
2018-07-07T04:14:48.818Z,14.04
2018-07-07T04:15:57.954Z,14.03
2018-07-07T04:17:07.369Z,13.95
2018-07-07T04:18:16.658Z,14.04
2018-07-07T04:19:25.517Z,14.07
2018-07-07T04:20:34.376Z,13.99
2018-07-07T04:21:43.515Z,14.02
2018-07-07T04:22:52.649Z,14.04
2018-07-07T04:24:01.541Z,14.07
2018-07-07T04:25:10.954Z,13.99
2018-07-07T04:26:19.813Z,13.97
2018-07-07T04:27:28.968Z,14
2018-07-07T04:28:37.828Z,14.03
2018-07-07T04:29:46.688Z,14.03
2018-07-07T04:30:55.550Z,14.07
2018-07-07T04:32:04.685Z,14.07
2018-07-07T04:33:13.543Z,14
2018-07-07T04:34:22.404Z,13.97
2018-07-07T04:35:31.261Z,14.06
2018-07-07T04:36:40.122Z,14.07
2018-07-07T04:37:48.986Z,14.14
2018-07-07T04:38:57.845Z,14.2
2018-07-07T04:40:06.702Z,14.1
2018-07-07T04:41:15.566Z,14.09
2018-07-07T04:42:24.426Z,14.06
2018-07-07T04:43:33.289Z,14.17
2018-07-07T04:44:42.422Z,14.25
2018-07-07T04:45:51.297Z,14.17
2018-07-07T04:47:01.164Z,14.17
2018-07-07T04:48:10.030Z,14.24
2018-07-07T04:49:18.886Z,14.29
2018-07-07T04:50:27.743Z,14.15
2018-07-07T04:51:36.604Z,14.12
2018-07-07T04:52:45.618Z,14.17
2018-07-07T04:53:54.759Z,14.07
2018-07-07T04:55:03.895Z,14.1
2018-07-07T04:56:12.760Z,14.1
2018-07-07T04:57:21.619Z,14.18
2018-07-07T04:58:31.382Z,14.35
2018-07-07T04:59:40.241Z,14.25
2018-07-07T05:00:49.102Z,14.29
2018-07-07T05:01:58.239Z,14.32
2018-07-07T05:03:07.101Z,14.32
2018-07-07T05:04:16.114Z,14.29
2018-07-07T05:05:25.255Z,14.32
2018-07-07T05:06:34.114Z,14.42
2018-07-07T05:07:42.973Z,14.46
2018-07-07T05:08:51.833Z,14.43
2018-07-07T05:10:01.072Z,14.57
2018-07-07T05:11:10.214Z,14.54
2018-07-07T05:12:19.074Z,14.46
2018-07-07T05:13:28.215Z,14.58
2018-07-07T05:14:37.351Z,14.55
2018-07-07T05:15:46.211Z,14.58
2018-07-07T05:16:55.071Z,14.68
2018-07-07T05:18:04.489Z,14.62
2018-07-07T05:19:13.623Z,14.77
2018-07-07T05:20:22.486Z,14.89
2018-07-07T05:21:31.773Z,14.99
2018-07-07T05:22:40.913Z,15.09
2018-07-07T05:23:49.774Z,14.95
2018-07-07T05:24:58.644Z,14.84
2018-07-07T05:26:07.507Z,14.89
2018-07-07T05:27:16.369Z,14.89
2018-07-07T05:28:25.230Z,15.01
2018-07-07T05:29:34.367Z,14.94
2018-07-07T05:30:43.230Z,15.06
2018-07-07T05:31:52.525Z,15.06
2018-07-07T05:33:01.389Z,15.01
2018-07-07T05:34:10.250Z,15.01
2018-07-07T05:35:19.111Z,15.14
2018-07-07T05:36:27.972Z,15.23
2018-07-07T05:37:36.833Z,15.46
2018-07-07T05:38:46.044Z,15.34
2018-07-07T05:39:54.908Z,15.23
2018-07-07T05:41:03.772Z,15.28
2018-07-07T05:42:12.639Z,15.34
2018-07-07T05:43:21.501Z,15.25
2018-07-07T05:44:30.929Z,15.41
2018-07-07T05:45:40.068Z,15.27
2018-07-07T05:46:49.483Z,15.31
2018-07-07T05:47:58.350Z,15.36
2018-07-07T05:49:07.216Z,15.35
2018-07-07T05:50:16.074Z,15.5
2018-07-07T05:51:24.937Z,15.43
2018-07-07T05:52:33.804Z,15.38
2018-07-07T05:53:42.939Z,15.29
2018-07-07T05:54:51.802Z,15.29
2018-07-07T05:56:00.667Z,15.25
2018-07-07T05:57:09.527Z,15.31
2018-07-07T05:58:18.391Z,15.29
2018-07-07T05:59:27.527Z,15.2
2018-07-07T06:00:36.391Z,15.28
2018-07-07T06:01:45.404Z,15.32
2018-07-07T06:02:54.265Z,15.21
2018-07-07T06:04:03.126Z,15.27
2018-07-07T06:05:11.988Z,15.25
2018-07-07T06:06:20.851Z,15.38
2018-07-07T06:07:29.865Z,15.49
2018-07-07T06:08:39.009Z,15.67
2018-07-07T06:09:47.873Z,15.69
2018-07-07T06:10:56.731Z,15.56
2018-07-07T06:12:05.592Z,15.62
2018-07-07T06:13:15.163Z,15.74
2018-07-07T06:14:24.392Z,15.69
2018-07-07T06:15:33.587Z,15.87
2018-07-07T06:16:42.447Z,15.9
2018-07-07T06:17:51.582Z,15.83
2018-07-07T06:19:00.445Z,15.84
2018-07-07T06:20:09.309Z,15.76
2018-07-07T06:21:18.172Z,15.86
2018-07-07T06:22:27.309Z,16.01
2018-07-07T06:23:36.172Z,15.96
2018-07-07T06:24:45.385Z,15.92
2018-07-07T06:25:54.243Z,15.93
2018-07-07T06:27:03.381Z,16.05
2018-07-07T06:28:12.521Z,16.04
2018-07-07T06:29:21.388Z,15.97
2018-07-07T06:30:30.249Z,16.07
2018-07-07T06:31:39.112Z,15.96
2018-07-07T06:32:47.974Z,16.01
2018-07-07T06:33:56.840Z,16
2018-07-07T06:35:05.974Z,16.08
2018-07-07T06:36:15.187Z,16.05
2018-07-07T06:37:24.095Z,16.11
2018-07-07T06:38:33.704Z,16.27
2018-07-07T06:39:42.541Z,16.25
2018-07-07T06:40:51.400Z,16.35
2018-07-07T06:42:00.262Z,16.25
2018-07-07T06:43:09.124Z,16.3
2018-07-07T06:44:17.987Z,16.42
2018-07-07T06:45:26.850Z,16.58
2018-07-07T06:46:35.711Z,16.6
2018-07-07T06:47:44.870Z,16.53
2018-07-07T06:48:53.733Z,16.56
2018-07-07T06:50:02.595Z,16.7
2018-07-07T06:51:11.457Z,16.79
2018-07-07T06:52:20.320Z,16.7
2018-07-07T06:53:29.179Z,16.76
2018-07-07T06:54:38.040Z,16.83
2018-07-07T06:55:46.901Z,16.81
2018-07-07T06:56:55.763Z,16.78
2018-07-07T06:58:04.630Z,16.86
2018-07-07T06:59:13.887Z,16.88
2018-07-07T07:00:22.786Z,16.88
2018-07-07T07:01:31.653Z,16.98
2018-07-07T07:02:40.517Z,17.04
2018-07-07T07:03:49.660Z,16.89
2018-07-07T07:04:58.523Z,16.89
2018-07-07T07:06:07.384Z,16.88
2018-07-07T07:07:16.246Z,16.91
2018-07-07T07:08:25.114Z,16.96
2018-07-07T07:09:34.252Z,16.96
2018-07-07T07:10:43.121Z,16.91
2018-07-07T07:11:52.347Z,16.94
2018-07-07T07:13:01.170Z,16.98
2018-07-07T07:14:10.031Z,17.11
2018-07-07T07:15:18.893Z,17.14
2018-07-07T07:16:27.911Z,17.18
2018-07-07T07:17:36.773Z,17.25
2018-07-07T07:18:45.635Z,17.4
2018-07-07T07:19:54.526Z,17.46
2018-07-07T07:21:03.959Z,17.48
2018-07-07T07:22:12.974Z,17.66
2018-07-07T07:23:22.113Z,17.52
2018-07-07T07:24:31.249Z,17.55
2018-07-07T07:25:40.116Z,17.56
2018-07-07T07:26:48.979Z,17.55
2018-07-07T07:27:58.122Z,17.51
2018-07-07T07:29:07.260Z,17.54
2018-07-07T07:30:16.126Z,17.58
2018-07-07T07:31:24.988Z,17.52
2018-07-07T07:32:33.855Z,17.63
2018-07-07T07:33:43.298Z,17.58
2018-07-07T07:34:52.446Z,17.44
2018-07-07T07:36:01.311Z,17.48
2018-07-07T07:37:10.454Z,17.58
2018-07-07T07:38:19.319Z,17.63
2018-07-07T07:39:28.333Z,17.58
2018-07-07T07:40:37.196Z,17.58
2018-07-07T07:41:46.060Z,17.63
2018-07-07T07:42:54.925Z,17.66
2018-07-07T07:44:04.080Z,17.7
2018-07-07T07:45:13.096Z,17.68
2018-07-07T07:46:21.957Z,17.81
2018-07-07T07:47:31.103Z,17.71
2018-07-07T07:48:39.968Z,17.72
2018-07-07T07:49:48.831Z,17.58
2018-07-07T07:50:57.696Z,17.49
2018-07-07T07:52:06.838Z,17.59
2018-07-07T07:53:15.702Z,17.51
2018-07-07T07:54:24.572Z,17.49
2018-07-07T07:55:33.726Z,17.62
2018-07-07T07:56:42.868Z,17.71
2018-07-07T07:57:52.021Z,17.77
2018-07-07T07:59:01.473Z,17.79
2018-07-07T08:00:10.731Z,17.82
2018-07-07T08:01:19.600Z,17.77
2018-07-07T08:02:28.463Z,17.81
2018-07-07T08:03:37.327Z,17.99
2018-07-07T08:04:46.204Z,17.93
2018-07-07T08:05:55.413Z,17.87
2018-07-07T08:07:04.276Z,17.97
2018-07-07T08:08:13.140Z,18.07
2018-07-07T08:09:22.556Z,18.02
2018-07-07T08:10:31.420Z,18.15
2018-07-07T08:11:40.283Z,18.08
2018-07-07T08:12:49.425Z,18.2
2018-07-07T08:13:58.290Z,18.17
2018-07-07T08:15:07.439Z,18.21
2018-07-07T08:16:16.585Z,18.17
2018-07-07T08:17:25.728Z,18.25
2018-07-07T08:18:34.594Z,18.3
2018-07-07T08:19:43.610Z,18.23
2018-07-07T08:20:52.479Z,18.33
2018-07-07T08:22:01.639Z,18.25
2018-07-07T08:23:10.510Z,18.29
2018-07-07T08:24:19.375Z,18.12
2018-07-07T08:25:28.239Z,18.17
2018-07-07T08:26:37.104Z,18.32
2018-07-07T08:27:45.970Z,18.27
2018-07-07T08:28:55.110Z,18.32
2018-07-07T08:30:03.975Z,18.42
2018-07-07T08:31:12.841Z,18.57
2018-07-07T08:32:21.982Z,18.63
2018-07-07T08:33:30.842Z,18.66
2018-07-07T08:34:39.706Z,18.69
2018-07-07T08:35:48.571Z,18.8
2018-07-07T08:36:57.813Z,18.66
2018-07-07T08:38:06.958Z,18.7
2018-07-07T08:39:15.824Z,18.72
2018-07-07T08:40:24.965Z,18.66
2018-07-07T08:41:33.835Z,18.76
2018-07-07T08:42:42.976Z,18.85
2018-07-07T08:43:51.839Z,18.85
2018-07-07T08:45:00.707Z,18.8
2018-07-07T08:46:09.846Z,18.66
2018-07-07T08:47:18.711Z,18.65
2018-07-07T08:48:28.004Z,18.72
2018-07-07T08:49:36.871Z,18.84
2018-07-07T08:50:46.016Z,18.87
2018-07-07T08:51:54.891Z,18.98
2018-07-07T08:53:04.030Z,18.92
2018-07-07T08:54:13.048Z,19
2018-07-07T08:55:22.879Z,18.95
2018-07-07T08:56:31.772Z,18.91
2018-07-07T08:57:40.640Z,19.06
2018-07-07T08:58:49.504Z,19.08
2018-07-07T08:59:58.367Z,19.07
2018-07-07T09:01:07.516Z,19.08
2018-07-07T09:02:16.407Z,19.13
2018-07-07T09:03:25.247Z,19.21
2018-07-07T09:04:34.221Z,19.07
2018-07-07T09:05:43.088Z,19.07
2018-07-07T09:06:51.955Z,19.19
2018-07-07T09:08:01.095Z,19.19
2018-07-07T09:09:09.961Z,19.25
2018-07-07T09:10:19.106Z,19.19
2018-07-07T09:11:27.974Z,19.08
2018-07-07T09:12:36.844Z,19.08
2018-07-07T09:13:45.707Z,19.06
2018-07-07T09:14:54.570Z,18.92
2018-07-07T09:16:03.722Z,19.08
2018-07-07T09:17:12.599Z,19.13
2018-07-07T09:18:21.737Z,19.31
2018-07-07T09:19:30.603Z,19.22
2018-07-07T09:20:39.758Z,19.31
2018-07-07T09:21:48.633Z,19.4
2018-07-07T09:22:57.778Z,19.44
2018-07-07T09:24:06.648Z,19.31
2018-07-07T09:25:15.531Z,19.18
2018-07-07T09:26:24.395Z,19.32
2018-07-07T09:27:33.669Z,19.29
2018-07-07T09:28:43.295Z,19.28
2018-07-07T09:29:53.183Z,19.21
2018-07-07T09:31:03.604Z,19.4
2018-07-07T09:32:13.896Z,19.37
2018-07-07T09:33:23.061Z,19.51
2018-07-07T09:34:32.202Z,19.61
2018-07-07T09:35:41.346Z,19.58
2018-07-07T09:36:50.212Z,19.61
2018-07-07T09:37:59.077Z,19.62
2018-07-07T09:39:08.494Z,19.56
2018-07-07T09:40:17.365Z,19.74
2018-07-07T09:41:26.242Z,19.62
2018-07-07T09:42:35.266Z,19.65
2018-07-07T09:43:44.741Z,19.61
2018-07-07T09:44:53.555Z,19.61
2018-07-07T09:46:02.424Z,19.62
2018-07-07T09:47:11.295Z,19.74
2018-07-07T09:48:20.212Z,19.84
2018-07-07T09:49:29.357Z,19.8
2018-07-07T09:50:38.496Z,19.88
2018-07-07T09:51:47.362Z,19.88
2018-07-07T09:52:56.504Z,19.92
2018-07-07T09:54:05.469Z,19.84
2018-07-07T09:55:14.335Z,19.74
2018-07-07T09:56:23.868Z,19.8
2018-07-07T09:57:33.448Z,19.86
2018-07-07T09:58:42.318Z,19.92
2018-07-07T09:59:51.339Z,19.74
2018-07-07T10:01:00.282Z,19.84
2018-07-07T10:02:09.462Z,19.8
2018-07-07T10:03:18.326Z,19.98
2018-07-07T10:04:27.216Z,20.01
2018-07-07T10:05:36.646Z,19.88
2018-07-07T10:06:45.507Z,19.84
2018-07-07T10:07:54.375Z,19.87
2018-07-07T10:09:03.241Z,19.91
2018-07-07T10:10:12.106Z,19.91
2018-07-07T10:11:21.125Z,19.8
2018-07-07T10:12:29.989Z,19.81
2018-07-07T10:13:39.136Z,19.96
2018-07-07T10:14:48.002Z,19.94
2018-07-07T10:15:56.871Z,19.96
2018-07-07T10:17:05.732Z,20.08
2018-07-07T10:18:14.599Z,20.01
2018-07-07T10:19:23.463Z,20.08
2018-07-07T10:20:32.329Z,20.06
2018-07-07T10:21:41.193Z,20.1
2018-07-07T10:22:50.058Z,20.08
2018-07-07T10:23:59.204Z,20.31
2018-07-07T10:25:08.349Z,20.21
2018-07-07T10:26:17.507Z,20.35
2018-07-07T10:27:26.954Z,20.43
2018-07-07T10:28:36.101Z,20.47
2018-07-07T10:29:45.982Z,20.32
2018-07-07T10:30:55.140Z,20.38
2018-07-07T10:32:04.099Z,20.38
2018-07-07T10:33:12.959Z,20.36
2018-07-07T10:34:21.848Z,20.42
2018-07-07T10:35:30.713Z,20.55
2018-07-07T10:36:39.579Z,20.54
2018-07-07T10:37:48.732Z,20.57
2018-07-07T10:38:57.598Z,20.61
2018-07-07T10:40:06.465Z,20.52
2018-07-07T10:41:15.331Z,20.51
2018-07-07T10:42:24.196Z,20.51
2018-07-07T10:43:33.619Z,20.54
2018-07-07T10:44:42.539Z,20.42
2018-07-07T10:45:51.572Z,20.52
2018-07-07T10:47:01.777Z,20.5
2018-07-07T10:48:10.641Z,20.36
2018-07-07T10:49:19.511Z,20.36
2018-07-07T10:50:28.780Z,20.52
2018-07-07T10:51:37.644Z,20.66
2018-07-07T10:52:46.508Z,20.73
2018-07-07T10:53:55.377Z,20.72
2018-07-07T10:55:04.378Z,20.7
2018-07-07T10:56:13.254Z,20.74
2018-07-07T10:57:22.143Z,20.73
2018-07-07T10:58:31.301Z,20.8
2018-07-07T10:59:40.736Z,20.84
2018-07-07T11:00:49.884Z,20.85
2018-07-07T11:01:59.593Z,20.73
2018-07-07T11:03:08.515Z,20.82
2018-07-07T11:04:17.390Z,20.87
2018-07-07T11:05:26.687Z,20.8
2018-07-07T11:06:35.594Z,20.88
2018-07-07T11:07:45.028Z,20.72
2018-07-07T11:08:54.174Z,20.73
2018-07-07T11:10:03.341Z,20.76
2018-07-07T11:11:12.413Z,20.99
2018-07-07T11:12:21.226Z,20.95
2018-07-07T11:13:30.090Z,20.97
2018-07-07T11:14:38.993Z,20.88
2018-07-07T11:15:48.039Z,20.89
2018-07-07T11:16:56.899Z,20.95
2018-07-07T11:18:05.769Z,20.95
2018-07-07T11:19:14.700Z,20.97
2018-07-07T11:20:23.569Z,21.06
2018-07-07T11:21:32.433Z,21.19
2018-07-07T11:22:41.298Z,21.07
2018-07-07T11:23:50.164Z,21.1
2018-07-07T11:24:59.029Z,21.09
2018-07-07T11:26:08.497Z,21.27
2018-07-07T11:27:17.373Z,21.32
2018-07-07T11:28:26.230Z,21.44
2018-07-07T11:29:35.098Z,21.5
2018-07-07T11:30:44.262Z,21.65
2018-07-07T11:31:53.125Z,21.68
2018-07-07T11:33:01.994Z,21.67
2018-07-07T11:34:11.011Z,21.65
2018-07-07T11:35:19.879Z,21.65
2018-07-07T11:36:28.822Z,21.64
2018-07-07T11:37:37.613Z,21.59
2018-07-07T11:38:46.479Z,21.8
2018-07-07T11:39:56.053Z,21.69
2018-07-07T11:41:04.918Z,21.74
2018-07-07T11:42:13.839Z,21.62
2018-07-07T11:43:22.720Z,21.8
2018-07-07T11:44:31.925Z,21.74
2018-07-07T11:45:41.193Z,21.86
2018-07-07T11:46:50.156Z,21.9
2018-07-07T11:47:59.085Z,21.99
2018-07-07T11:49:08.860Z,21.94
2018-07-07T11:50:18.883Z,22.02
2018-07-07T11:51:28.547Z,22.28
2018-07-07T11:52:38.028Z,22.42
2018-07-07T11:53:47.894Z,22.75
2018-07-07T11:54:58.000Z,22.98
2018-07-07T11:56:07.970Z,23.01
2018-07-07T11:57:18.423Z,22.72
2018-07-07T11:58:27.503Z,22.83
2018-07-07T11:59:36.945Z,22.62
2018-07-07T12:00:45.811Z,22.82
2018-07-07T12:01:54.691Z,23.25
2018-07-07T12:03:03.937Z,23.32
2018-07-07T12:04:12.805Z,23.4
2018-07-07T12:05:21.674Z,23.51
2018-07-07T12:06:30.552Z,23.61
2018-07-07T12:07:39.423Z,23.25
2018-07-07T12:08:48.716Z,23.31
2018-07-07T12:09:57.588Z,23.61
2018-07-07T12:11:06.730Z,23.36
2018-07-07T12:12:15.599Z,23.22
2018-07-07T12:13:24.467Z,23.75
2018-07-07T12:14:33.823Z,23.69
2018-07-07T12:15:42.980Z,24.08
2018-07-07T12:16:51.860Z,23.84
2018-07-07T12:18:00.738Z,23.98
2018-07-07T12:19:09.608Z,23.91
2018-07-07T12:20:18.481Z,24.08
2018-07-07T12:21:27.359Z,23.6
2018-07-07T12:22:36.513Z,23.1
2018-07-07T12:23:45.387Z,23.09
2018-07-07T12:24:54.298Z,23.22
2018-07-07T12:26:03.188Z,23.57
2018-07-07T12:27:12.060Z,23.95
2018-07-07T12:28:21.206Z,23.66
2018-07-07T12:29:30.090Z,23.7
2018-07-07T12:30:38.962Z,24
2018-07-07T12:31:47.835Z,23.84
2018-07-07T12:32:57.278Z,24.06
2018-07-07T12:34:06.144Z,24.39
2018-07-07T12:35:15.294Z,24.34
2018-07-07T12:36:24.174Z,24.53
2018-07-07T12:37:33.146Z,24.34
2018-07-07T12:38:42.018Z,24.55
2018-07-07T12:39:51.224Z,24.8
2018-07-07T12:41:00.286Z,24.95
2018-07-07T12:42:09.270Z,24.83
2018-07-07T12:43:19.280Z,24.46
2018-07-07T12:44:28.165Z,24.42
2018-07-07T12:45:37.041Z,24.68
2018-07-07T12:46:45.920Z,24.21
2018-07-07T12:47:54.799Z,24.21
2018-07-07T12:49:03.729Z,24.27
2018-07-07T12:50:12.651Z,24.55
2018-07-07T12:51:21.523Z,24.58
2018-07-07T12:52:30.500Z,24.8
2018-07-07T12:53:39.511Z,24.83
2018-07-07T12:54:48.489Z,24.98
2018-07-07T12:55:57.374Z,24.88
2018-07-07T12:57:06.541Z,24.5
2018-07-07T12:58:15.724Z,24.62
2018-07-07T12:59:25.180Z,24.55
2018-07-07T13:00:34.064Z,24.49
2018-07-07T13:01:43.260Z,24.67
2018-07-07T13:02:52.178Z,24.8
2018-07-07T13:04:01.053Z,24.69
2018-07-07T13:05:10.237Z,24.83
2018-07-07T13:06:19.208Z,24.42
2018-07-07T13:07:28.098Z,24.55
2018-07-07T13:08:37.017Z,24.52
2018-07-07T13:09:45.896Z,24.78
2018-07-07T13:10:55.131Z,25
2018-07-07T13:12:04.010Z,24.71
2018-07-07T13:13:12.933Z,25
2018-07-07T13:14:21.823Z,25.32
2018-07-07T13:15:31.051Z,25.61
2018-07-07T13:16:39.924Z,25.87
2018-07-07T13:17:48.947Z,26.13
2018-07-07T13:18:57.845Z,26.1
2018-07-07T13:20:07.148Z,26.45
2018-07-07T13:21:16.025Z,26.05
2018-07-07T13:22:25.215Z,25.6
2018-07-07T13:23:34.561Z,25.32
2018-07-07T13:24:43.483Z,25.88
2018-07-07T13:25:52.656Z,25.67
2018-07-07T13:27:01.557Z,25.13
2018-07-07T13:28:10.778Z,25.2
2018-07-07T13:29:19.834Z,25.3
2018-07-07T13:30:29.064Z,25.67
2018-07-07T13:31:38.257Z,25.99
2018-07-07T13:32:47.578Z,26.1
2018-07-07T13:33:56.501Z,26.01
2018-07-07T13:35:05.788Z,26.23
2018-07-07T13:36:14.744Z,26.45
2018-07-07T13:37:23.666Z,26.09
2018-07-07T13:38:33.298Z,26.32
2018-07-07T13:39:42.532Z,26.55
2018-07-07T13:40:51.860Z,26.65
2018-07-07T13:42:00.901Z,26.8
2018-07-07T13:43:10.033Z,26.76
2018-07-07T13:44:19.122Z,26.85
2018-07-07T13:45:28.342Z,26.97
2018-07-07T13:46:37.817Z,27.02
2018-07-07T13:47:46.749Z,26.94
2018-07-07T13:48:55.867Z,27.19
2018-07-07T13:50:05.104Z,26.99
2018-07-07T13:51:14.280Z,27.27
2018-07-07T13:52:23.460Z,27.46
2018-07-07T13:53:32.661Z,27.59
2018-07-07T13:54:42.284Z,27.74
2018-07-07T13:55:51.165Z,27.59
2018-07-07T13:57:00.085Z,27.41
2018-07-07T13:58:09.254Z,27.34
2018-07-07T13:59:18.199Z,27.24
2018-07-07T14:00:27.092Z,27.31
2018-07-07T14:01:36.219Z,27.54
2018-07-07T14:02:45.364Z,27.72
2018-07-07T14:03:55.267Z,28
2018-07-07T14:05:04.479Z,27.87
2018-07-07T14:06:13.607Z,27.9
2018-07-07T14:07:22.886Z,27.79
2018-07-07T14:08:32.081Z,27.75
2018-07-07T14:09:41.243Z,27.93
2018-07-07T14:10:50.456Z,27.74
2018-07-07T14:11:59.414Z,27.7
2018-07-07T14:13:09.057Z,27.69
2018-07-07T14:14:18.553Z,27.4
2018-07-07T14:15:27.830Z,27.55
2018-07-07T14:16:36.969Z,27.75
2018-07-07T14:17:46.260Z,27.84
2018-07-07T14:18:55.232Z,28.02
2018-07-07T14:20:04.137Z,27.75
2018-07-07T14:21:13.075Z,27.93
2018-07-07T14:22:22.399Z,27.75
2018-07-07T14:23:31.308Z,27.81
2018-07-07T14:24:40.218Z,27.96
2018-07-07T14:25:49.241Z,27.88
2018-07-07T14:26:58.615Z,27.92
2018-07-07T14:28:07.505Z,27.87
2018-07-07T14:29:16.716Z,27.77
2018-07-07T14:30:26.350Z,27.7
2018-07-07T14:31:35.430Z,27.88
2018-07-07T14:32:44.701Z,27.77
2018-07-07T14:33:53.604Z,27.82
2018-07-07T14:35:03.148Z,27.99
2018-07-07T14:36:12.453Z,28.36
2018-07-07T14:37:21.612Z,28.41
2018-07-07T14:38:30.768Z,28.54
2018-07-07T14:39:39.972Z,28.51
2018-07-07T14:40:49.172Z,28.43
2018-07-07T14:41:58.061Z,28.52
2018-07-07T14:43:07.280Z,28.56
2018-07-07T14:44:16.337Z,28.61
2018-07-07T14:45:25.759Z,28.88
2018-07-07T14:46:35.145Z,28.89
2018-07-07T14:47:44.027Z,28.54
2018-07-07T14:48:52.948Z,28.17
2018-07-07T14:50:02.020Z,28.34
2018-07-07T14:51:11.036Z,28.33
2018-07-07T14:52:20.578Z,28.39
2018-07-07T14:53:29.766Z,28.25